EIN42W LIPZ-EIDW
Flight info
| Callsign | EIN42W |
|---|---|
| Flight time | 2h 24m |
| Altitude | 38000 |
| Route | ROKIB6L ROKIB DCT UNIMI DCT XEBIX DCT USUDO DCT LIRSU DCT DENUT L610 KOPUL DCT SABER DCT SIVDA DCT RODOL UL28 LELDO M145 BAGSO BAGSO3R |
| Aircraft | A320/M-SDE3FGHIRWY/LB1 |
Departure
| Time | 2026-04-30 17:50 |
|---|---|
| Airport | Venice Marco Polo Airport (LIPZ) |
Arrival
| Time | 2026-04-30 20:14 |
|---|---|
| Airport | Dublin Airport (EIDW) |
| Time | Latitude | Longitude | Altitude | Speed | Heading |
|---|---|---|---|---|---|
| 2026-04-30 17:39 | 45.50083 | 12.33951 | 15 ft | 0 kts | 311° |
| 2026-04-30 17:42 | 45.50068 | 12.33976 | 15 ft | 7 kts | 312° |
| 2026-04-30 17:43 | 45.50047 | 12.34037 | 14 ft | 6 kts | 226° |
| 2026-04-30 17:44 | 45.50080 | 12.34080 | 15 ft | 0 kts | 222° |
| 2026-04-30 17:47 | 45.50069 | 12.34065 | 14 ft | 6 kts | 222° |
| 2026-04-30 17:48 | 45.49780 | 12.33692 | 19 ft | 17 kts | 219° |
| 2026-04-30 17:48 | 45.49500 | 12.33619 | 18 ft | 17 kts | 130° |
| 2026-04-30 17:49 | 45.49710 | 12.34159 | 11 ft | 61 kts | 41° |
| 2026-04-30 17:50 | 45.52793 | 12.38281 | 1082 ft | 188 kts | 48° |
| 2026-04-30 17:51 | 45.53369 | 12.43590 | 3198 ft | 193 kts | 98° |
| 2026-04-30 17:52 | 45.52762 | 12.49421 | 5160 ft | 204 kts | 97° |
| 2026-04-30 17:53 | 45.46661 | 12.50548 | 8124 ft | 258 kts | 231° |
| 2026-04-30 17:54 | 45.45279 | 12.39849 | 10562 ft | 301 kts | 270° |
| 2026-04-30 17:55 | 45.44806 | 12.26803 | 12787 ft | 343 kts | 270° |
| 2026-04-30 17:56 | 45.45262 | 12.13101 | 15453 ft | 349 kts | 297° |
| 2026-04-30 17:57 | 45.49983 | 12.05635 | 17362 ft | 344 kts | 329° |
| 2026-04-30 17:58 | 45.56003 | 11.99821 | 19219 ft | 352 kts | 329° |
| 2026-04-30 17:59 | 45.64211 | 11.91850 | 21505 ft | 361 kts | 329° |
| 2026-04-30 18:00 | 45.72640 | 11.83727 | 23743 ft | 368 kts | 334° |
| 2026-04-30 18:00 | 45.79586 | 11.78901 | 25021 ft | 375 kts | 338° |
| 2026-04-30 18:01 | 45.84298 | 11.75642 | 25869 ft | 379 kts | 338° |
| 2026-04-30 18:02 | 45.91468 | 11.70667 | 26990 ft | 386 kts | 338° |
| 2026-04-30 18:02 | 45.98798 | 11.65680 | 28043 ft | 392 kts | 339° |
| 2026-04-30 18:03 | 46.06318 | 11.60711 | 29072 ft | 400 kts | 339° |
| 2026-04-30 18:04 | 46.13941 | 11.55629 | 30014 ft | 406 kts | 339° |
| 2026-04-30 18:05 | 46.24246 | 11.48690 | 31026 ft | 411 kts | 339° |
| 2026-04-30 18:06 | 46.34640 | 11.41674 | 32171 ft | 412 kts | 339° |
| 2026-04-30 18:07 | 46.44958 | 11.34670 | 33366 ft | 410 kts | 339° |
| 2026-04-30 18:08 | 46.52683 | 11.29424 | 34278 ft | 407 kts | 339° |
| 2026-04-30 18:09 | 46.62893 | 11.22456 | 35300 ft | 407 kts | 338° |
| 2026-04-30 18:10 | 46.73128 | 11.15441 | 36131 ft | 408 kts | 338° |
| 2026-04-30 18:11 | 46.83446 | 11.08342 | 36964 ft | 410 kts | 338° |
| 2026-04-30 18:11 | 46.90654 | 11.01618 | 37538 ft | 415 kts | 327° |
| 2026-04-30 18:12 | 46.97640 | 10.94105 | 38070 ft | 415 kts | 327° |
| 2026-04-30 18:13 | 47.02291 | 10.89084 | 38227 ft | 415 kts | 327° |
| 2026-04-30 18:14 | 47.13881 | 10.76548 | 38233 ft | 414 kts | 327° |
| 2026-04-30 18:15 | 47.27736 | 10.61452 | 38263 ft | 414 kts | 327° |
| 2026-04-30 18:16 | 47.37005 | 10.51301 | 38282 ft | 415 kts | 328° |
| 2026-04-30 18:17 | 47.41616 | 10.46200 | 38281 ft | 416 kts | 327° |
| 2026-04-30 18:18 | 47.48454 | 10.38331 | 38263 ft | 416 kts | 326° |
| 2026-04-30 18:18 | 47.53002 | 10.33046 | 38277 ft | 416 kts | 326° |
| 2026-04-30 18:19 | 47.57542 | 10.27789 | 38281 ft | 416 kts | 327° |
| 2026-04-30 18:19 | 47.62111 | 10.22520 | 38284 ft | 416 kts | 327° |
| 2026-04-30 18:20 | 47.66647 | 10.17265 | 38288 ft | 416 kts | 327° |
| 2026-04-30 18:20 | 47.71205 | 10.11958 | 38261 ft | 416 kts | 327° |
| 2026-04-30 18:21 | 47.75740 | 10.06667 | 38272 ft | 416 kts | 327° |
| 2026-04-30 18:21 | 47.80297 | 10.01351 | 38285 ft | 416 kts | 327° |
| 2026-04-30 18:22 | 47.84836 | 9.96041 | 38287 ft | 416 kts | 327° |
| 2026-04-30 18:22 | 47.91675 | 9.88012 | 38302 ft | 416 kts | 327° |
| 2026-04-30 18:23 | 47.96203 | 9.82686 | 38299 ft | 416 kts | 327° |
| 2026-04-30 18:23 | 48.00761 | 9.77306 | 38273 ft | 417 kts | 327° |
| 2026-04-30 18:24 | 48.07549 | 9.69266 | 38286 ft | 418 kts | 327° |
| 2026-04-30 18:25 | 48.11891 | 9.63391 | 38288 ft | 422 kts | 321° |
| 2026-04-30 18:25 | 48.18214 | 9.54232 | 38290 ft | 422 kts | 321° |
| 2026-04-30 18:26 | 48.24506 | 9.45082 | 38257 ft | 422 kts | 321° |
| 2026-04-30 18:27 | 48.30842 | 9.35827 | 38274 ft | 424 kts | 321° |
| 2026-04-30 18:28 | 48.37186 | 9.26554 | 38287 ft | 425 kts | 321° |
| 2026-04-30 18:28 | 48.43524 | 9.17251 | 38296 ft | 426 kts | 321° |
| 2026-04-30 18:29 | 48.51959 | 9.04811 | 38273 ft | 427 kts | 320° |
| 2026-04-30 18:30 | 48.60447 | 8.92209 | 38287 ft | 428 kts | 320° |
| 2026-04-30 18:31 | 48.66808 | 8.82737 | 38297 ft | 429 kts | 320° |
| 2026-04-30 18:32 | 48.73178 | 8.73233 | 38291 ft | 429 kts | 320° |
| 2026-04-30 18:33 | 48.79543 | 8.63669 | 38279 ft | 431 kts | 319° |
| 2026-04-30 18:33 | 48.85199 | 8.55137 | 38284 ft | 431 kts | 319° |
| 2026-04-30 18:34 | 48.91597 | 8.45467 | 38288 ft | 432 kts | 319° |
| 2026-04-30 18:35 | 48.95842 | 8.39047 | 38284 ft | 432 kts | 319° |
| 2026-04-30 18:35 | 49.00079 | 8.32604 | 38287 ft | 433 kts | 319° |
| 2026-04-30 18:36 | 49.06468 | 8.22869 | 38296 ft | 433 kts | 319° |
| 2026-04-30 18:37 | 49.12844 | 8.13103 | 38315 ft | 434 kts | 319° |
| 2026-04-30 18:37 | 49.17105 | 8.06552 | 38317 ft | 434 kts | 319° |
| 2026-04-30 18:38 | 49.21355 | 8.00018 | 38310 ft | 434 kts | 319° |
| 2026-04-30 18:38 | 49.25587 | 7.93487 | 38309 ft | 433 kts | 318° |
| 2026-04-30 18:39 | 49.29835 | 7.86903 | 38304 ft | 434 kts | 318° |
| 2026-04-30 18:39 | 49.34053 | 7.80354 | 38295 ft | 434 kts | 318° |
| 2026-04-30 18:40 | 49.38276 | 7.73778 | 38305 ft | 434 kts | 318° |
| 2026-04-30 18:40 | 49.42525 | 7.67147 | 38306 ft | 434 kts | 318° |
| 2026-04-30 18:41 | 49.46748 | 7.60550 | 38300 ft | 434 kts | 318° |
| 2026-04-30 18:41 | 49.50989 | 7.53906 | 38283 ft | 435 kts | 317° |
| 2026-04-30 18:42 | 49.55204 | 7.47275 | 38309 ft | 435 kts | 317° |
| 2026-04-30 18:42 | 49.61545 | 7.37279 | 38314 ft | 435 kts | 317° |
| 2026-04-30 18:45 | 49.84807 | 7.00260 | 38309 ft | 438 kts | 317° |
| 2026-04-30 18:46 | 49.89041 | 6.93464 | 38325 ft | 438 kts | 316° |
| 2026-04-30 18:46 | 49.93264 | 6.86660 | 38301 ft | 438 kts | 316° |
| 2026-04-30 18:47 | 49.97491 | 6.79830 | 38293 ft | 438 kts | 316° |
| 2026-04-30 18:47 | 50.01722 | 6.72971 | 38286 ft | 439 kts | 316° |
| 2026-04-30 18:48 | 50.05931 | 6.66149 | 38283 ft | 439 kts | 316° |
| 2026-04-30 18:48 | 50.10140 | 6.59305 | 38285 ft | 439 kts | 316° |
| 2026-04-30 18:49 | 50.14366 | 6.52396 | 38284 ft | 439 kts | 316° |
| 2026-04-30 18:49 | 50.18511 | 6.45398 | 38290 ft | 441 kts | 309° |
| 2026-04-30 18:50 | 50.21835 | 6.37362 | 38281 ft | 443 kts | 303° |
| 2026-04-30 18:50 | 50.25082 | 6.29108 | 38280 ft | 444 kts | 303° |
| 2026-04-30 18:51 | 50.28308 | 6.20896 | 38287 ft | 445 kts | 303° |
| 2026-04-30 18:51 | 50.31532 | 6.12667 | 38298 ft | 445 kts | 303° |
| 2026-04-30 18:52 | 50.34768 | 6.04384 | 38297 ft | 445 kts | 303° |
| 2026-04-30 18:52 | 50.37968 | 5.96144 | 38297 ft | 445 kts | 302° |
| 2026-04-30 18:53 | 50.41202 | 5.87817 | 38287 ft | 446 kts | 302° |
| 2026-04-30 18:53 | 50.44418 | 5.79533 | 38288 ft | 446 kts | 302° |
| 2026-04-30 18:54 | 50.47619 | 5.71235 | 38285 ft | 446 kts | 302° |
| 2026-04-30 18:54 | 50.50829 | 5.62872 | 38287 ft | 446 kts | 302° |
| 2026-04-30 18:55 | 50.54030 | 5.54495 | 38283 ft | 446 kts | 302° |
| 2026-04-30 18:55 | 50.58822 | 5.41928 | 38286 ft | 447 kts | 302° |
| 2026-04-30 18:56 | 50.63597 | 5.29352 | 38286 ft | 447 kts | 302° |
| 2026-04-30 18:57 | 50.68378 | 5.16717 | 38288 ft | 447 kts | 302° |
| 2026-04-30 18:57 | 50.71537 | 5.08321 | 38284 ft | 448 kts | 301° |
| 2026-04-30 18:58 | 50.76288 | 4.95628 | 38281 ft | 449 kts | 301° |
| 2026-04-30 18:59 | 50.81032 | 4.82901 | 38287 ft | 449 kts | 301° |
| 2026-04-30 19:00 | 50.87356 | 4.65854 | 38281 ft | 450 kts | 300° |
| 2026-04-30 19:01 | 50.93663 | 4.48731 | 38291 ft | 449 kts | 300° |
| 2026-04-30 19:02 | 50.98375 | 4.35865 | 38279 ft | 450 kts | 300° |
| 2026-04-30 19:03 | 51.04630 | 4.18664 | 38284 ft | 451 kts | 300° |
| 2026-04-30 19:04 | 51.10895 | 4.01317 | 38273 ft | 452 kts | 300° |
| 2026-04-30 19:05 | 51.17128 | 3.83958 | 38273 ft | 452 kts | 300° |
| 2026-04-30 19:06 | 51.23175 | 3.66497 | 38272 ft | 450 kts | 291° |
| 2026-04-30 19:06 | 51.25451 | 3.52021 | 38260 ft | 448 kts | 281° |
| 2026-04-30 19:07 | 51.27380 | 3.37416 | 38254 ft | 449 kts | 281° |
| 2026-04-30 19:08 | 51.29880 | 3.17932 | 38265 ft | 447 kts | 280° |
| 2026-04-30 19:09 | 51.31729 | 3.03329 | 38264 ft | 447 kts | 280° |
| 2026-04-30 19:09 | 51.32946 | 2.93622 | 38252 ft | 446 kts | 280° |
| 2026-04-30 19:10 | 51.35365 | 2.74161 | 38250 ft | 445 kts | 279° |
| 2026-04-30 19:11 | 51.37156 | 2.59601 | 38242 ft | 444 kts | 279° |
| 2026-04-30 19:12 | 51.38345 | 2.49917 | 38241 ft | 444 kts | 279° |
| 2026-04-30 19:12 | 51.39520 | 2.40198 | 38244 ft | 444 kts | 279° |
| 2026-04-30 19:13 | 51.41840 | 2.20857 | 38238 ft | 445 kts | 279° |
| 2026-04-30 19:14 | 51.43008 | 2.11085 | 38238 ft | 445 kts | 279° |
| 2026-04-30 19:14 | 51.44150 | 2.01394 | 38234 ft | 445 kts | 278° |
| 2026-04-30 19:15 | 51.45317 | 1.91688 | 38239 ft | 445 kts | 279° |
| 2026-04-30 19:15 | 51.47107 | 1.77100 | 38232 ft | 445 kts | 279° |
| 2026-04-30 19:16 | 51.48224 | 1.67277 | 38231 ft | 446 kts | 278° |
| 2026-04-30 19:17 | 51.49868 | 1.52650 | 38231 ft | 446 kts | 278° |
| 2026-04-30 19:17 | 51.51533 | 1.37973 | 38235 ft | 446 kts | 278° |
| 2026-04-30 19:18 | 51.53208 | 1.23320 | 38234 ft | 447 kts | 283° |
| 2026-04-30 19:19 | 51.55713 | 1.14185 | 38229 ft | 449 kts | 304° |
| 2026-04-30 19:19 | 51.62560 | 1.04073 | 38229 ft | 450 kts | 324° |
| 2026-04-30 19:20 | 51.67646 | 0.98165 | 38226 ft | 451 kts | 324° |
| 2026-04-30 19:21 | 51.75067 | 0.88841 | 38235 ft | 451 kts | 318° |
| 2026-04-30 19:22 | 51.84440 | 0.75421 | 38235 ft | 451 kts | 318° |
| 2026-04-30 19:23 | 51.98701 | 0.55496 | 38239 ft | 451 kts | 318° |
| 2026-04-30 19:24 | 52.05787 | 0.45497 | 38254 ft | 451 kts | 318° |
| 2026-04-30 19:25 | 52.17589 | 0.28755 | 38244 ft | 450 kts | 318° |
| 2026-04-30 19:26 | 52.26986 | 0.15341 | 38241 ft | 450 kts | 318° |
| 2026-04-30 19:27 | 52.34042 | 0.05235 | 38237 ft | 450 kts | 317° |
| 2026-04-30 19:28 | 52.40116 | -0.06342 | 38234 ft | 448 kts | 306° |
| 2026-04-30 19:29 | 52.47832 | -0.22425 | 38228 ft | 449 kts | 307° |
| 2026-04-30 19:30 | 52.55539 | -0.38547 | 38215 ft | 450 kts | 306° |
| 2026-04-30 19:31 | 52.63245 | -0.54782 | 38226 ft | 450 kts | 306° |
| 2026-04-30 19:31 | 52.68999 | -0.66977 | 38232 ft | 450 kts | 306° |
| 2026-04-30 19:32 | 52.72839 | -0.75157 | 38236 ft | 450 kts | 306° |
| 2026-04-30 19:32 | 52.76654 | -0.83296 | 38246 ft | 450 kts | 306° |
| 2026-04-30 19:33 | 52.80454 | -0.91430 | 38243 ft | 449 kts | 306° |
| 2026-04-30 19:33 | 52.84274 | -0.99642 | 38228 ft | 449 kts | 306° |
| 2026-04-30 19:34 | 52.88067 | -1.07832 | 38225 ft | 450 kts | 306° |
| 2026-04-30 19:35 | 52.93779 | -1.20191 | 38214 ft | 451 kts | 306° |
| 2026-04-30 19:35 | 52.97586 | -1.28450 | 38211 ft | 452 kts | 305° |
| 2026-04-30 19:36 | 53.01394 | -1.36743 | 38213 ft | 452 kts | 305° |
| 2026-04-30 19:36 | 53.07102 | -1.49242 | 38225 ft | 453 kts | 305° |
| 2026-04-30 19:37 | 53.10892 | -1.57562 | 38237 ft | 453 kts | 305° |
| 2026-04-30 19:37 | 53.14703 | -1.65959 | 38234 ft | 453 kts | 304° |
| 2026-04-30 19:38 | 53.18503 | -1.74374 | 38231 ft | 453 kts | 304° |
| 2026-04-30 19:38 | 53.22277 | -1.82765 | 38235 ft | 454 kts | 304° |
| 2026-04-30 19:39 | 53.25463 | -1.91700 | 38218 ft | 449 kts | 294° |
| 2026-04-30 19:39 | 53.28242 | -2.01038 | 38219 ft | 448 kts | 294° |
| 2026-04-30 19:40 | 53.31014 | -2.10368 | 38226 ft | 448 kts | 294° |
| 2026-04-30 19:40 | 53.33784 | -2.19707 | 38212 ft | 448 kts | 294° |
| 2026-04-30 19:41 | 53.36292 | -2.29212 | 38219 ft | 444 kts | 284° |
| 2026-04-30 19:41 | 53.38162 | -2.39081 | 38211 ft | 444 kts | 285° |
| 2026-04-30 19:42 | 53.40026 | -2.48884 | 38207 ft | 444 kts | 285° |
| 2026-04-30 19:42 | 53.41900 | -2.58762 | 38223 ft | 444 kts | 284° |
| 2026-04-30 19:43 | 53.43754 | -2.68583 | 38204 ft | 445 kts | 284° |
| 2026-04-30 19:44 | 53.46524 | -2.83434 | 38193 ft | 445 kts | 284° |
| 2026-04-30 19:44 | 53.48053 | -2.91712 | 38184 ft | 445 kts | 284° |
| 2026-04-30 19:45 | 53.50189 | -3.03280 | 38186 ft | 445 kts | 284° |
| 2026-04-30 19:45 | 53.51722 | -3.11616 | 38202 ft | 445 kts | 284° |
| 2026-04-30 19:46 | 53.53536 | -3.21513 | 38189 ft | 445 kts | 284° |
| 2026-04-30 19:46 | 53.55346 | -3.31492 | 38177 ft | 445 kts | 284° |
| 2026-04-30 19:47 | 53.57141 | -3.41476 | 38176 ft | 446 kts | 284° |
| 2026-04-30 19:47 | 53.58941 | -3.51465 | 37898 ft | 448 kts | 284° |
| 2026-04-30 19:47 | 53.59839 | -3.56469 | 37064 ft | 451 kts | 284° |
| 2026-04-30 19:48 | 53.60740 | -3.61497 | 36617 ft | 445 kts | 283° |
| 2026-04-30 19:48 | 53.61652 | -3.66457 | 36100 ft | 443 kts | 287° |
| 2026-04-30 19:48 | 53.62779 | -3.71224 | 35595 ft | 440 kts | 288° |
| 2026-04-30 19:48 | 53.63930 | -3.75994 | 35067 ft | 437 kts | 288° |
| 2026-04-30 19:49 | 53.65068 | -3.80732 | 34556 ft | 434 kts | 288° |
| 2026-04-30 19:49 | 53.67303 | -3.90123 | 33506 ft | 428 kts | 288° |
| 2026-04-30 19:49 | 53.68402 | -3.94760 | 32992 ft | 424 kts | 288° |
| 2026-04-30 19:50 | 53.69494 | -3.99357 | 32503 ft | 420 kts | 288° |
| 2026-04-30 19:50 | 53.70578 | -4.03924 | 32016 ft | 417 kts | 288° |
| 2026-04-30 19:50 | 53.71448 | -4.08492 | 31541 ft | 409 kts | 279° |
| 2026-04-30 19:50 | 53.71851 | -4.13211 | 31082 ft | 402 kts | 270° |
| 2026-04-30 19:51 | 53.72016 | -4.17906 | 30646 ft | 399 kts | 269° |
| 2026-04-30 19:51 | 53.72190 | -4.22542 | 30181 ft | 397 kts | 269° |
| 2026-04-30 19:51 | 53.72369 | -4.27170 | 29712 ft | 393 kts | 269° |
| 2026-04-30 19:51 | 53.72546 | -4.31763 | 29290 ft | 389 kts | 269° |
| 2026-04-30 19:52 | 53.72716 | -4.36290 | 28882 ft | 384 kts | 268° |
| 2026-04-30 19:52 | 53.72881 | -4.40773 | 28476 ft | 380 kts | 268° |
| 2026-04-30 19:52 | 53.73041 | -4.45207 | 28054 ft | 376 kts | 268° |
| 2026-04-30 19:52 | 53.73197 | -4.49551 | 27652 ft | 373 kts | 268° |
| 2026-04-30 19:53 | 53.73351 | -4.53906 | 27238 ft | 369 kts | 268° |
| 2026-04-30 19:53 | 53.73504 | -4.58230 | 26817 ft | 366 kts | 268° |
| 2026-04-30 19:53 | 53.73652 | -4.62477 | 26388 ft | 364 kts | 267° |
| 2026-04-30 19:53 | 53.73798 | -4.66759 | 25962 ft | 361 kts | 267° |
| 2026-04-30 19:54 | 53.73939 | -4.70938 | 25556 ft | 360 kts | 267° |
| 2026-04-30 19:54 | 53.74076 | -4.75165 | 25098 ft | 359 kts | 267° |
| 2026-04-30 19:54 | 53.74212 | -4.79375 | 24653 ft | 358 kts | 267° |
| 2026-04-30 19:54 | 53.74346 | -4.83526 | 24209 ft | 357 kts | 267° |
| 2026-04-30 19:55 | 53.74482 | -4.87727 | 23759 ft | 356 kts | 267° |
| 2026-04-30 19:55 | 53.74620 | -4.91913 | 23252 ft | 356 kts | 267° |
| 2026-04-30 19:55 | 53.74758 | -4.96067 | 22812 ft | 353 kts | 267° |
| 2026-04-30 19:55 | 53.74893 | -5.00206 | 22373 ft | 351 kts | 267° |
| 2026-04-30 19:56 | 53.75019 | -5.04272 | 21948 ft | 349 kts | 266° |
| 2026-04-30 19:56 | 53.75145 | -5.08376 | 21520 ft | 347 kts | 266° |
| 2026-04-30 19:56 | 53.75190 | -5.12440 | 21103 ft | 341 kts | 259° |
| 2026-04-30 19:56 | 53.74828 | -5.16291 | 20697 ft | 332 kts | 248° |
| 2026-04-30 19:57 | 53.74119 | -5.19964 | 20307 ft | 327 kts | 244° |
| 2026-04-30 19:57 | 53.73378 | -5.23593 | 19931 ft | 326 kts | 244° |
| 2026-04-30 19:57 | 53.72641 | -5.27227 | 19518 ft | 325 kts | 244° |
| 2026-04-30 19:57 | 53.71910 | -5.30835 | 19129 ft | 324 kts | 245° |
| 2026-04-30 19:58 | 53.71191 | -5.34384 | 18745 ft | 323 kts | 245° |
| 2026-04-30 19:58 | 53.70463 | -5.37983 | 18351 ft | 322 kts | 245° |
| 2026-04-30 19:58 | 53.69735 | -5.41555 | 17940 ft | 320 kts | 244° |
| 2026-04-30 19:58 | 53.69010 | -5.45089 | 17559 ft | 318 kts | 244° |
| 2026-04-30 19:59 | 53.68291 | -5.48607 | 17179 ft | 316 kts | 244° |
| 2026-04-30 19:59 | 53.67716 | -5.52208 | 16797 ft | 319 kts | 251° |
| 2026-04-30 19:59 | 53.66771 | -5.59483 | 16031 ft | 317 kts | 251° |
| 2026-04-30 20:00 | 53.66298 | -5.63112 | 15652 ft | 316 kts | 251° |
| 2026-04-30 20:00 | 53.65825 | -5.66735 | 15276 ft | 315 kts | 251° |
| 2026-04-30 20:00 | 53.65350 | -5.70337 | 14899 ft | 314 kts | 251° |
| 2026-04-30 20:00 | 53.64879 | -5.73882 | 14535 ft | 314 kts | 251° |
| 2026-04-30 20:01 | 53.63925 | -5.81052 | 13768 ft | 313 kts | 251° |
| 2026-04-30 20:01 | 53.63448 | -5.84638 | 13370 ft | 312 kts | 251° |
| 2026-04-30 20:01 | 53.62978 | -5.88188 | 12992 ft | 310 kts | 251° |
| 2026-04-30 20:02 | 53.62038 | -5.95233 | 12242 ft | 306 kts | 251° |
| 2026-04-30 20:02 | 53.61569 | -5.98721 | 11860 ft | 304 kts | 251° |
| 2026-04-30 20:03 | 53.60632 | -6.05657 | 11089 ft | 301 kts | 251° |
| 2026-04-30 20:03 | 53.60173 | -6.09048 | 10699 ft | 300 kts | 251° |
| 2026-04-30 20:03 | 53.59708 | -6.12477 | 10318 ft | 299 kts | 251° |
| 2026-04-30 20:03 | 53.59246 | -6.15883 | 9976 ft | 296 kts | 251° |
| 2026-04-30 20:04 | 53.58792 | -6.19230 | 9568 ft | 294 kts | 251° |
| 2026-04-30 20:04 | 53.58336 | -6.22563 | 9263 ft | 289 kts | 251° |
| 2026-04-30 20:04 | 53.57888 | -6.25855 | 8873 ft | 287 kts | 252° |
| 2026-04-30 20:05 | 53.57059 | -6.32291 | 8460 ft | 270 kts | 255° |
| 2026-04-30 20:05 | 53.56785 | -6.35342 | 8397 ft | 259 kts | 256° |
| 2026-04-30 20:05 | 53.56307 | -6.41440 | 8281 ft | 264 kts | 257° |
| 2026-04-30 20:06 | 53.56066 | -6.44485 | 8215 ft | 263 kts | 257° |
| 2026-04-30 20:06 | 53.55818 | -6.47550 | 7798 ft | 268 kts | 256° |
| 2026-04-30 20:06 | 53.55553 | -6.50712 | 6921 ft | 277 kts | 257° |
| 2026-04-30 20:06 | 53.55282 | -6.53924 | 6153 ft | 278 kts | 257° |
| 2026-04-30 20:07 | 53.55023 | -6.57035 | 5823 ft | 261 kts | 256° |
| 2026-04-30 20:07 | 53.54784 | -6.59966 | 5537 ft | 247 kts | 255° |
| 2026-04-30 20:07 | 53.53402 | -6.64873 | 4734 ft | 226 kts | 218° |
| 2026-04-30 20:08 | 53.52182 | -6.66438 | 4404 ft | 217 kts | 202° |
| 2026-04-30 20:08 | 53.50792 | -6.67268 | 4099 ft | 209 kts | 185° |
| 2026-04-30 20:08 | 53.49364 | -6.67306 | 4008 ft | 204 kts | 168° |
| 2026-04-30 20:08 | 53.48012 | -6.66615 | 4011 ft | 203 kts | 153° |
| 2026-04-30 20:09 | 53.46849 | -6.65278 | 4014 ft | 204 kts | 138° |
| 2026-04-30 20:09 | 53.45975 | -6.63395 | 4006 ft | 206 kts | 122° |
| 2026-04-30 20:09 | 53.45353 | -6.58935 | 3830 ft | 193 kts | 101° |
| 2026-04-30 20:10 | 53.45134 | -6.54628 | 3375 ft | 177 kts | 102° |
| 2026-04-30 20:10 | 53.45028 | -6.52605 | 3144 ft | 171 kts | 102° |
| 2026-04-30 20:10 | 53.44923 | -6.50622 | 2912 ft | 170 kts | 103° |
| 2026-04-30 20:11 | 53.44714 | -6.46672 | 2459 ft | 169 kts | 103° |
| 2026-04-30 20:11 | 53.44610 | -6.44708 | 2230 ft | 167 kts | 103° |
| 2026-04-30 20:11 | 53.44515 | -6.42859 | 2013 ft | 151 kts | 104° |
| 2026-04-30 20:12 | 53.44344 | -6.39639 | 1660 ft | 130 kts | 106° |
| 2026-04-30 20:12 | 53.44263 | -6.38147 | 1474 ft | 128 kts | 103° |
| 2026-04-30 20:12 | 53.44182 | -6.36662 | 1302 ft | 128 kts | 103° |
| 2026-04-30 20:13 | 53.44115 | -6.35192 | 1097 ft | 128 kts | 101° |
| 2026-04-30 20:13 | 53.44032 | -6.33699 | 890 ft | 129 kts | 99° |
| 2026-04-30 20:13 | 53.43943 | -6.32193 | 705 ft | 131 kts | 97° |
| 2026-04-30 20:13 | 53.43860 | -6.30670 | 575 ft | 132 kts | 96° |
| 2026-04-30 20:14 | 53.43777 | -6.29134 | 411 ft | 133 kts | 94° |
| 2026-04-30 20:14 | 53.43689 | -6.27585 | 221 ft | 131 kts | 94° |
| 2026-04-30 20:14 | 53.43618 | -6.26277 | 222 ft | 81 kts | 95° |
| 2026-04-30 20:14 | 53.43580 | -6.25583 | 213 ft | 44 kts | 95° |
| 2026-04-30 20:15 | 53.43522 | -6.25206 | 214 ft | 25 kts | 120° |
| 2026-04-30 20:15 | 53.43468 | -6.25055 | 219 ft | 12 kts | 120° |
| 2026-04-30 20:15 | 53.43412 | -6.24986 | 211 ft | 10 kts | 189° |
| 2026-04-30 20:15 | 53.43382 | -6.25106 | 211 ft | 15 kts | 276° |
| 2026-04-30 20:16 | 53.43392 | -6.25291 | 211 ft | 17 kts | 276° |
| 2026-04-30 20:16 | 53.43403 | -6.25484 | 216 ft | 17 kts | 275° |
| 2026-04-30 20:16 | 53.43375 | -6.25647 | 211 ft | 16 kts | 197° |
| 2026-04-30 20:16 | 53.43262 | -6.25582 | 211 ft | 19 kts | 156° |
| 2026-04-30 20:17 | 53.43132 | -6.25488 | 220 ft | 22 kts | 157° |
| 2026-04-30 20:17 | 53.42996 | -6.25389 | 215 ft | 21 kts | 156° |
| 2026-04-30 20:17 | 53.42867 | -6.25295 | 215 ft | 18 kts | 157° |
| 2026-04-30 20:17 | 53.42794 | -6.25156 | 214 ft | 17 kts | 95° |
| 2026-04-30 20:18 | 53.42740 | -6.25003 | 211 ft | 16 kts | 150° |
| 2026-04-30 20:18 | 53.42661 | -6.24921 | 217 ft | 13 kts | 147° |
| 2026-04-30 20:18 | 53.42591 | -6.24860 | 211 ft | 9 kts | 157° |
| 2026-04-30 20:18 | 53.42542 | -6.24826 | 211 ft | 7 kts | 157° |
| 2026-04-30 20:19 | 53.42502 | -6.24798 | 213 ft | 5 kts | 156° |
| 2026-04-30 20:19 | 53.42489 | -6.24772 | 214 ft | 4 kts | 114° |
| 2026-04-30 20:19 | 53.42498 | -6.24727 | 211 ft | 3 kts | 49° |
| 2026-04-30 20:19 | 53.42509 | -6.24706 | 213 ft | 2 kts | 50° |
| 2026-04-30 20:20 | 53.42517 | -6.24691 | 214 ft | 2 kts | 47° |
| 2026-04-30 20:20 | 53.42525 | -6.24676 | 217 ft | 1 kts | 47° |
| 2026-04-30 20:20 | 53.42527 | -6.24673 | 211 ft | 0 kts | 47° |